sensor_id;sensor_type;location;lat;lon;timestamp;P1;durP1;ratioP1;P2;durP2;ratioP2
18445;SDS011;9352;50.888;4.466;2023-04-25T00:00:27;26.02;;;4.85;;
18445;SDS011;9352;50.888;4.466;2023-04-25T00:02:54;21.08;;;4.63;;
18445;SDS011;9352;50.888;4.466;2023-04-25T00:05:22;14.68;;;4.25;;
18445;SDS011;9352;50.888;4.466;2023-04-25T00:07:49;23.70;;;3.95;;
18445;SDS011;9352;50.888;4.466;2023-04-25T00:10:16;16.55;;;3.92;;
18445;SDS011;9352;50.888;4.466;2023-04-25T00:12:43;26.08;;;4.63;;
18445;SDS011;9352;50.888;4.466;2023-04-25T00:15:12;27.10;;;4.25;;
18445;SDS011;9352;50.888;4.466;2023-04-25T00:17:39;16.48;;;4.75;;
18445;SDS011;9352;50.888;4.466;2023-04-25T00:20:06;17.25;;;3.88;;
18445;SDS011;9352;50.888;4.466;2023-04-25T00:22:34;16.58;;;4.10;;
18445;SDS011;9352;50.888;4.466;2023-04-25T00:25:03;20.98;;;4.55;;
18445;SDS011;9352;50.888;4.466;2023-04-25T00:27:31;14.52;;;3.78;;
18445;SDS011;9352;50.888;4.466;2023-04-25T00:29:58;25.42;;;4.78;;
18445;SDS011;9352;50.888;4.466;2023-04-25T00:32:26;17.65;;;4.55;;
18445;SDS011;9352;50.888;4.466;2023-04-25T00:34:53;23.95;;;5.18;;
18445;SDS011;9352;50.888;4.466;2023-04-25T00:37:20;19.17;;;4.32;;
18445;SDS011;9352;50.888;4.466;2023-04-25T00:39:47;19.58;;;4.43;;
18445;SDS011;9352;50.888;4.466;2023-04-25T00:42:14;22.48;;;4.55;;
18445;SDS011;9352;50.888;4.466;2023-04-25T00:44:42;28.90;;;4.82;;
18445;SDS011;9352;50.888;4.466;2023-04-25T00:47:09;25.70;;;4.55;;
18445;SDS011;9352;50.888;4.466;2023-04-25T00:49:38;22.17;;;4.13;;
18445;SDS011;9352;50.888;4.466;2023-04-25T00:52:05;18.02;;;4.38;;
18445;SDS011;9352;50.888;4.466;2023-04-25T00:54:32;15.38;;;3.65;;
18445;SDS011;9352;50.888;4.466;2023-04-25T00:56:59;18.45;;;4.05;;
18445;SDS011;9352;50.888;4.466;2023-04-25T00:59:27;20.80;;;4.25;;
18445;SDS011;9352;50.888;4.466;2023-04-25T01:01:54;20.95;;;4.68;;
18445;SDS011;9352;50.888;4.466;2023-04-25T01:04:21;16.45;;;4.30;;
18445;SDS011;9352;50.888;4.466;2023-04-25T01:06:50;20.25;;;4.28;;
18445;SDS011;9352;50.888;4.466;2023-04-25T01:09:18;20.45;;;4.80;;
18445;SDS011;9352;50.888;4.466;2023-04-25T01:11:45;31.52;;;4.93;;
18445;SDS011;9352;50.888;4.466;2023-04-25T01:14:12;21.05;;;4.65;;
18445;SDS011;9352;50.888;4.466;2023-04-25T01:16:39;17.30;;;4.35;;
18445;SDS011;9352;50.888;4.466;2023-04-25T01:19:06;29.42;;;5.28;;
18445;SDS011;9352;50.888;4.466;2023-04-25T01:21:38;22.30;;;4.38;;
18445;SDS011;9352;50.888;4.466;2023-04-25T01:24:05;18.15;;;4.32;;
18445;SDS011;9352;50.888;4.466;2023-04-25T01:26:33;25.13;;;4.68;;
18445;SDS011;9352;50.888;4.466;2023-04-25T01:29:02;21.95;;;4.20;;
18445;SDS011;9352;50.888;4.466;2023-04-25T01:31:30;15.13;;;4.40;;
18445;SDS011;9352;50.888;4.466;2023-04-25T01:33:59;19.80;;;4.88;;
18445;SDS011;9352;50.888;4.466;2023-04-25T01:36:26;23.98;;;5.28;;
18445;SDS011;9352;50.888;4.466;2023-04-25T01:38:54;19.83;;;4.85;;
18445;SDS011;9352;50.888;4.466;2023-04-25T01:41:21;21.55;;;4.80;;
18445;SDS011;9352;50.888;4.466;2023-04-25T01:43:49;22.83;;;4.97;;
18445;SDS011;9352;50.888;4.466;2023-04-25T01:46:16;29.13;;;4.80;;
18445;SDS011;9352;50.888;4.466;2023-04-25T01:48:43;18.17;;;4.63;;
18445;SDS011;9352;50.888;4.466;2023-04-25T01:51:10;28.60;;;4.88;;
18445;SDS011;9352;50.888;4.466;2023-04-25T01:53:37;29.08;;;5.38;;
18445;SDS011;9352;50.888;4.466;2023-04-25T01:56:06;21.90;;;5.40;;
18445;SDS011;9352;50.888;4.466;2023-04-25T01:58:33;22.98;;;5.43;;
18445;SDS011;9352;50.888;4.466;2023-04-25T02:01:00;22.98;;;5.22;;
18445;SDS011;9352;50.888;4.466;2023-04-25T02:03:27;17.30;;;5.78;;
18445;SDS011;9352;50.888;4.466;2023-04-25T02:05:55;24.52;;;5.63;;
18445;SDS011;9352;50.888;4.466;2023-04-25T02:08:22;22.23;;;5.50;;
18445;SDS011;9352;50.888;4.466;2023-04-25T02:10:51;33.35;;;6.60;;
18445;SDS011;9352;50.888;4.466;2023-04-25T02:13:19;26.08;;;7.05;;
18445;SDS011;9352;50.888;4.466;2023-04-25T02:15:46;30.77;;;6.50;;
18445;SDS011;9352;50.888;4.466;2023-04-25T02:18:13;33.33;;;6.60;;
18445;SDS011;9352;50.888;4.466;2023-04-25T02:20:41;22.75;;;6.15;;
18445;SDS011;9352;50.888;4.466;2023-04-25T02:23:08;26.92;;;6.72;;
18445;SDS011;9352;50.888;4.466;2023-04-25T02:25:35;26.80;;;5.75;;
18445;SDS011;9352;50.888;4.466;2023-04-25T02:28:01;29.30;;;6.20;;
18445;SDS011;9352;50.888;4.466;2023-04-25T02:30:30;34.67;;;6.85;;
18445;SDS011;9352;50.888;4.466;2023-04-25T02:32:57;25.92;;;6.18;;
18445;SDS011;9352;50.888;4.466;2023-04-25T02:35:24;28.45;;;6.57;;
18445;SDS011;9352;50.888;4.466;2023-04-25T02:37:51;20.13;;;6.50;;
18445;SDS011;9352;50.888;4.466;2023-04-25T02:40:17;30.85;;;6.13;;
18445;SDS011;9352;50.888;4.466;2023-04-25T02:42:44;22.02;;;6.32;;
18445;SDS011;9352;50.888;4.466;2023-04-25T02:45:11;20.95;;;5.85;;
18445;SDS011;9352;50.888;4.466;2023-04-25T02:47:40;18.58;;;6.32;;
18445;SDS011;9352;50.888;4.466;2023-04-25T02:50:07;27.98;;;6.50;;
18445;SDS011;9352;50.888;4.466;2023-04-25T02:52:34;34.13;;;6.20;;
18445;SDS011;9352;50.888;4.466;2023-04-25T02:55:01;25.67;;;6.32;;
18445;SDS011;9352;50.888;4.466;2023-04-25T02:57:28;29.33;;;6.03;;
18445;SDS011;9352;50.888;4.466;2023-04-25T02:59:54;22.42;;;6.32;;
18445;SDS011;9352;50.888;4.466;2023-04-25T03:02:21;23.65;;;5.82;;
18445;SDS011;9352;50.888;4.466;2023-04-25T03:04:49;24.70;;;5.90;;
18445;SDS011;9352;50.888;4.466;2023-04-25T03:07:17;33.92;;;7.00;;
18445;SDS011;9352;50.888;4.466;2023-04-25T03:09:44;20.55;;;7.07;;
18445;SDS011;9352;50.888;4.466;2023-04-25T03:12:11;37.80;;;6.30;;
18445;SDS011;9352;50.888;4.466;2023-04-25T03:14:38;25.25;;;6.68;;
18445;SDS011;9352;50.888;4.466;2023-04-25T03:17:05;21.00;;;6.30;;
18445;SDS011;9352;50.888;4.466;2023-04-25T03:19:31;22.50;;;5.85;;
18445;SDS011;9352;50.888;4.466;2023-04-25T03:22:00;19.55;;;5.78;;
18445;SDS011;9352;50.888;4.466;2023-04-25T03:24:26;26.67;;;5.80;;
18445;SDS011;9352;50.888;4.466;2023-04-25T03:26:53;23.65;;;5.75;;
18445;SDS011;9352;50.888;4.466;2023-04-25T03:29:20;27.63;;;5.82;;
18445;SDS011;9352;50.888;4.466;2023-04-25T03:31:49;33.60;;;5.85;;
18445;SDS011;9352;50.888;4.466;2023-04-25T03:34:16;22.65;;;5.50;;
18445;SDS011;9352;50.888;4.466;2023-04-25T03:36:43;20.20;;;5.45;;
18445;SDS011;9352;50.888;4.466;2023-04-25T03:39:11;30.50;;;5.60;;
18445;SDS011;9352;50.888;4.466;2023-04-25T03:41:38;31.10;;;5.82;;
18445;SDS011;9352;50.888;4.466;2023-04-25T03:44:05;21.40;;;5.13;;
18445;SDS011;9352;50.888;4.466;2023-04-25T03:46:32;25.83;;;5.40;;
18445;SDS011;9352;50.888;4.466;2023-04-25T03:48:59;23.23;;;5.47;;
18445;SDS011;9352;50.888;4.466;2023-04-25T03:51:25;28.67;;;5.20;;
18445;SDS011;9352;50.888;4.466;2023-04-25T03:53:52;19.15;;;4.65;;
18445;SDS011;9352;50.888;4.466;2023-04-25T03:56:20;25.60;;;4.18;;
18445;SDS011;9352;50.888;4.466;2023-04-25T03:58:47;21.50;;;4.93;;
18445;SDS011;9352;50.888;4.466;2023-04-25T04:01:14;22.77;;;4.30;;
18445;SDS011;9352;50.888;4.466;2023-04-25T04:03:41;25.05;;;4.68;;
18445;SDS011;9352;50.888;4.466;2023-04-25T04:06:08;23.17;;;4.90;;
18445;SDS011;9352;50.888;4.466;2023-04-25T04:08:35;17.00;;;4.18;;
18445;SDS011;9352;50.888;4.466;2023-04-25T04:11:02;19.65;;;4.57;;
18445;SDS011;9352;50.888;4.466;2023-04-25T04:13:31;19.02;;;4.55;;
18445;SDS011;9352;50.888;4.466;2023-04-25T04:15:58;22.13;;;4.55;;
18445;SDS011;9352;50.888;4.466;2023-04-25T04:18:25;23.20;;;4.18;;
18445;SDS011;9352;50.888;4.466;2023-04-25T04:20:52;22.15;;;4.25;;
18445;SDS011;9352;50.888;4.466;2023-04-25T04:23:19;14.02;;;3.70;;
18445;SDS011;9352;50.888;4.466;2023-04-25T04:25:47;18.25;;;4.32;;
18445;SDS011;9352;50.888;4.466;2023-04-25T04:28:14;18.88;;;4.15;;
18445;SDS011;9352;50.888;4.466;2023-04-25T04:30:44;14.43;;;3.97;;
18445;SDS011;9352;50.888;4.466;2023-04-25T04:33:12;24.45;;;4.85;;
18445;SDS011;9352;50.888;4.466;2023-04-25T04:35:40;15.52;;;4.13;;
18445;SDS011;9352;50.888;4.466;2023-04-25T04:38:07;19.70;;;4.38;;
18445;SDS011;9352;50.888;4.466;2023-04-25T04:40:35;19.50;;;4.10;;
18445;SDS011;9352;50.888;4.466;2023-04-25T04:43:02;22.58;;;4.93;;
18445;SDS011;9352;50.888;4.466;2023-04-25T04:45:29;14.82;;;3.97;;
18445;SDS011;9352;50.888;4.466;2023-04-25T04:47:57;20.65;;;4.03;;
18445;SDS011;9352;50.888;4.466;2023-04-25T04:50:24;13.57;;;4.35;;
18445;SDS011;9352;50.888;4.466;2023-04-25T04:52:52;15.00;;;4.43;;
18445;SDS011;9352;50.888;4.466;2023-04-25T04:55:20;20.88;;;4.82;;
18445;SDS011;9352;50.888;4.466;2023-04-25T04:57:47;16.75;;;4.85;;
18445;SDS011;9352;50.888;4.466;2023-04-25T05:00:14;23.48;;;5.53;;
18445;SDS011;9352;50.888;4.466;2023-04-25T05:02:41;19.77;;;5.18;;
18445;SDS011;9352;50.888;4.466;2023-04-25T05:05:09;21.95;;;5.00;;
18445;SDS011;9352;50.888;4.466;2023-04-25T05:07:36;21.77;;;4.70;;
18445;SDS011;9352;50.888;4.466;2023-04-25T05:10:04;22.13;;;4.82;;
18445;SDS011;9352;50.888;4.466;2023-04-25T05:12:32;17.90;;;4.93;;
18445;SDS011;9352;50.888;4.466;2023-04-25T05:14:59;28.52;;;5.55;;
18445;SDS011;9352;50.888;4.466;2023-04-25T05:17:26;15.65;;;4.43;;
18445;SDS011;9352;50.888;4.466;2023-04-25T05:19:53;20.42;;;4.57;;
18445;SDS011;9352;50.888;4.466;2023-04-25T05:22:22;16.63;;;4.57;;
18445;SDS011;9352;50.888;4.466;2023-04-25T05:24:49;21.40;;;5.20;;
18445;SDS011;9352;50.888;4.466;2023-04-25T05:27:16;25.02;;;4.80;;
18445;SDS011;9352;50.888;4.466;2023-04-25T05:29:44;22.33;;;5.45;;
18445;SDS011;9352;50.888;4.466;2023-04-25T05:32:11;22.15;;;5.15;;
18445;SDS011;9352;50.888;4.466;2023-04-25T05:34:38;21.60;;;5.50;;
18445;SDS011;9352;50.888;4.466;2023-04-25T05:37:05;18.48;;;5.53;;
18445;SDS011;9352;50.888;4.466;2023-04-25T05:39:33;17.52;;;5.20;;
18445;SDS011;9352;50.888;4.466;2023-04-25T05:42:00;22.85;;;4.85;;
18445;SDS011;9352;50.888;4.466;2023-04-25T05:44:28;17.10;;;5.35;;
18445;SDS011;9352;50.888;4.466;2023-04-25T05:46:56;36.22;;;6.00;;
18445;SDS011;9352;50.888;4.466;2023-04-25T05:49:23;25.80;;;5.55;;
18445;SDS011;9352;50.888;4.466;2023-04-25T05:51:50;19.75;;;6.55;;
18445;SDS011;9352;50.888;4.466;2023-04-25T05:54:17;16.48;;;5.97;;
18445;SDS011;9352;50.888;4.466;2023-04-25T05:56:45;21.33;;;5.65;;
18445;SDS011;9352;50.888;4.466;2023-04-25T05:59:12;34.20;;;5.90;;
18445;SDS011;9352;50.888;4.466;2023-04-25T06:01:39;21.58;;;5.43;;
18445;SDS011;9352;50.888;4.466;2023-04-25T06:04:06;29.48;;;7.05;;
18445;SDS011;9352;50.888;4.466;2023-04-25T06:06:33;29.40;;;6.20;;
18445;SDS011;9352;50.888;4.466;2023-04-25T06:09:00;34.25;;;6.20;;
18445;SDS011;9352;50.888;4.466;2023-04-25T06:11:26;23.92;;;5.93;;
18445;SDS011;9352;50.888;4.466;2023-04-25T06:13:55;22.52;;;6.85;;
18445;SDS011;9352;50.888;4.466;2023-04-25T06:16:22;25.85;;;5.50;;
18445;SDS011;9352;50.888;4.466;2023-04-25T06:18:50;25.80;;;5.70;;
18445;SDS011;9352;50.888;4.466;2023-04-25T06:21:17;24.98;;;5.60;;
18445;SDS011;9352;50.888;4.466;2023-04-25T06:23:44;29.30;;;6.63;;
18445;SDS011;9352;50.888;4.466;2023-04-25T06:26:11;25.15;;;6.82;;
18445;SDS011;9352;50.888;4.466;2023-04-25T06:28:38;30.00;;;6.60;;
18445;SDS011;9352;50.888;4.466;2023-04-25T06:31:06;32.47;;;7.05;;
18445;SDS011;9352;50.888;4.466;2023-04-25T06:33:33;26.27;;;6.60;;
18445;SDS011;9352;50.888;4.466;2023-04-25T06:36:00;30.25;;;7.35;;
18445;SDS011;9352;50.888;4.466;2023-04-25T06:38:27;19.60;;;6.35;;
18445;SDS011;9352;50.888;4.466;2023-04-25T06:40:54;33.85;;;7.88;;
18445;SDS011;9352;50.888;4.466;2023-04-25T06:43:21;26.80;;;6.70;;
18445;SDS011;9352;50.888;4.466;2023-04-25T06:45:47;34.42;;;6.50;;
18445;SDS011;9352;50.888;4.466;2023-04-25T06:48:16;21.45;;;6.15;;
18445;SDS011;9352;50.888;4.466;2023-04-25T06:50:42;21.40;;;5.78;;
18445;SDS011;9352;50.888;4.466;2023-04-25T06:53:09;16.15;;;4.65;;
18445;SDS011;9352;50.888;4.466;2023-04-25T06:55:36;27.75;;;5.40;;
18445;SDS011;9352;50.888;4.466;2023-04-25T06:58:03;21.08;;;5.15;;
18445;SDS011;9352;50.888;4.466;2023-04-25T07:00:30;19.88;;;5.28;;
18445;SDS011;9352;50.888;4.466;2023-04-25T07:02:58;20.88;;;5.25;;
18445;SDS011;9352;50.888;4.466;2023-04-25T07:05:26;20.67;;;4.97;;
18445;SDS011;9352;50.888;4.466;2023-04-25T07:07:53;16.65;;;4.22;;
18445;SDS011;9352;50.888;4.466;2023-04-25T07:10:20;17.20;;;4.50;;
18445;SDS011;9352;50.888;4.466;2023-04-25T07:12:47;15.80;;;4.10;;
18445;SDS011;9352;50.888;4.466;2023-04-25T07:15:14;13.60;;;3.97;;
18445;SDS011;9352;50.888;4.466;2023-04-25T07:17:41;26.88;;;5.38;;
18445;SDS011;9352;50.888;4.466;2023-04-25T07:20:08;18.48;;;4.95;;
18445;SDS011;9352;50.888;4.466;2023-04-25T07:22:37;20.38;;;4.07;;
18445;SDS011;9352;50.888;4.466;2023-04-25T07:25:05;15.30;;;3.78;;
18445;SDS011;9352;50.888;4.466;2023-04-25T07:27:33;17.33;;;4.35;;
18445;SDS011;9352;50.888;4.466;2023-04-25T07:30:00;21.95;;;4.22;;
18445;SDS011;9352;50.888;4.466;2023-04-25T07:32:28;17.80;;;3.83;;
18445;SDS011;9352;50.888;4.466;2023-04-25T07:34:55;19.60;;;3.80;;
18445;SDS011;9352;50.888;4.466;2023-04-25T07:37:22;13.95;;;3.88;;
18445;SDS011;9352;50.888;4.466;2023-04-25T07:39:50;28.50;;;3.83;;
18445;SDS011;9352;50.888;4.466;2023-04-25T07:42:17;16.33;;;3.55;;
18445;SDS011;9352;50.888;4.466;2023-04-25T07:44:44;14.95;;;3.50;;
18445;SDS011;9352;50.888;4.466;2023-04-25T07:47:11;13.65;;;3.08;;
18445;SDS011;9352;50.888;4.466;2023-04-25T07:49:38;14.57;;;2.97;;
18445;SDS011;9352;50.888;4.466;2023-04-25T07:52:06;15.45;;;3.35;;
18445;SDS011;9352;50.888;4.466;2023-04-25T07:54:32;24.30;;;3.78;;
18445;SDS011;9352;50.888;4.466;2023-04-25T07:57:01;18.38;;;3.53;;
18445;SDS011;9352;50.888;4.466;2023-04-25T07:59:28;19.50;;;5.03;;
18445;SDS011;9352;50.888;4.466;2023-04-25T08:01:55;18.23;;;3.22;;
18445;SDS011;9352;50.888;4.466;2023-04-25T08:04:22;12.30;;;3.30;;
18445;SDS011;9352;50.888;4.466;2023-04-25T08:06:50;11.38;;;3.30;;
18445;SDS011;9352;50.888;4.466;2023-04-25T08:09:17;16.88;;;4.32;;
18445;SDS011;9352;50.888;4.466;2023-04-25T08:11:44;17.92;;;3.45;;
18445;SDS011;9352;50.888;4.466;2023-04-25T08:14:12;17.73;;;3.47;;
18445;SDS011;9352;50.888;4.466;2023-04-25T08:16:39;14.15;;;3.50;;
18445;SDS011;9352;50.888;4.466;2023-04-25T08:19:07;22.00;;;3.45;;
18445;SDS011;9352;50.888;4.466;2023-04-25T08:21:34;14.40;;;2.85;;
18445;SDS011;9352;50.888;4.466;2023-04-25T08:24:00;10.18;;;2.88;;
18445;SDS011;9352;50.888;4.466;2023-04-25T08:26:27;12.45;;;2.85;;
18445;SDS011;9352;50.888;4.466;2023-04-25T08:28:54;14.98;;;3.70;;
18445;SDS011;9352;50.888;4.466;2023-04-25T08:31:23;13.60;;;3.35;;
18445;SDS011;9352;50.888;4.466;2023-04-25T08:33:50;20.38;;;5.55;;
18445;SDS011;9352;50.888;4.466;2023-04-25T08:36:17;13.63;;;3.90;;
18445;SDS011;9352;50.888;4.466;2023-04-25T08:38:44;17.35;;;3.35;;
18445;SDS011;9352;50.888;4.466;2023-04-25T08:41:11;7.53;;;2.78;;
18445;SDS011;9352;50.888;4.466;2023-04-25T08:43:41;19.15;;;3.78;;
18445;SDS011;9352;50.888;4.466;2023-04-25T08:46:09;11.35;;;2.92;;
18445;SDS011;9352;50.888;4.466;2023-04-25T08:48:40;19.15;;;3.47;;
18445;SDS011;9352;50.888;4.466;2023-04-25T08:51:08;14.32;;;3.95;;
18445;SDS011;9352;50.888;4.466;2023-04-25T08:53:39;11.85;;;3.28;;
18445;SDS011;9352;50.888;4.466;2023-04-25T08:56:07;8.70;;;4.68;;
18445;SDS011;9352;50.888;4.466;2023-04-25T08:58:38;12.05;;;4.18;;
18445;SDS011;9352;50.888;4.466;2023-04-25T09:01:05;21.98;;;3.72;;
18445;SDS011;9352;50.888;4.466;2023-04-25T09:03:32;14.50;;;3.95;;
18445;SDS011;9352;50.888;4.466;2023-04-25T09:06:00;20.55;;;7.13;;
18445;SDS011;9352;50.888;4.466;2023-04-25T09:08:28;10.93;;;2.92;;
18445;SDS011;9352;50.888;4.466;2023-04-25T09:10:55;9.20;;;2.45;;
18445;SDS011;9352;50.888;4.466;2023-04-25T09:13:24;17.67;;;3.40;;
18445;SDS011;9352;50.888;4.466;2023-04-25T09:15:53;11.82;;;2.80;;
18445;SDS011;9352;50.888;4.466;2023-04-25T09:18:22;13.60;;;2.75;;
18445;SDS011;9352;50.888;4.466;2023-04-25T09:20:50;18.88;;;3.80;;
18445;SDS011;9352;50.888;4.466;2023-04-25T09:23:20;16.17;;;3.30;;
18445;SDS011;9352;50.888;4.466;2023-04-25T09:25:47;13.77;;;2.83;;
18445;SDS011;9352;50.888;4.466;2023-04-25T09:28:15;10.77;;;2.42;;
18445;SDS011;9352;50.888;4.466;2023-04-25T09:30:42;10.90;;;2.22;;
18445;SDS011;9352;50.888;4.466;2023-04-25T09:33:12;9.55;;;2.30;;
18445;SDS011;9352;50.888;4.466;2023-04-25T09:35:39;13.18;;;2.33;;
18445;SDS011;9352;50.888;4.466;2023-04-25T09:38:07;9.93;;;2.35;;
18445;SDS011;9352;50.888;4.466;2023-04-25T09:40:39;17.35;;;3.20;;
18445;SDS011;9352;50.888;4.466;2023-04-25T09:43:10;9.27;;;2.20;;
18445;SDS011;9352;50.888;4.466;2023-04-25T09:45:44;8.88;;;2.80;;
18445;SDS011;9352;50.888;4.466;2023-04-25T09:48:12;5.50;;;2.60;;
18445;SDS011;9352;50.888;4.466;2023-04-25T09:50:43;11.85;;;4.47;;
18445;SDS011;9352;50.888;4.466;2023-04-25T09:53:10;12.65;;;3.63;;
18445;SDS011;9352;50.888;4.466;2023-04-25T09:55:37;12.80;;;3.58;;
18445;SDS011;9352;50.888;4.466;2023-04-25T09:58:06;10.95;;;3.28;;
18445;SDS011;9352;50.888;4.466;2023-04-25T10:00:34;8.38;;;2.95;;
18445;SDS011;9352;50.888;4.466;2023-04-25T10:03:01;7.25;;;2.78;;
18445;SDS011;9352;50.888;4.466;2023-04-25T10:05:30;6.82;;;2.50;;
18445;SDS011;9352;50.888;4.466;2023-04-25T10:08:01;12.25;;;2.97;;
18445;SDS011;9352;50.888;4.466;2023-04-25T10:10:29;12.48;;;3.55;;
18445;SDS011;9352;50.888;4.466;2023-04-25T10:13:03;8.43;;;2.47;;
18445;SDS011;9352;50.888;4.466;2023-04-25T10:15:32;12.18;;;2.75;;
18445;SDS011;9352;50.888;4.466;2023-04-25T10:18:01;9.35;;;2.42;;
18445;SDS011;9352;50.888;4.466;2023-04-25T10:20:29;9.82;;;2.67;;
18445;SDS011;9352;50.888;4.466;2023-04-25T10:22:57;14.95;;;2.50;;
18445;SDS011;9352;50.888;4.466;2023-04-25T10:25:30;9.43;;;2.15;;
18445;SDS011;9352;50.888;4.466;2023-04-25T10:27:59;6.10;;;2.33;;
18445;SDS011;9352;50.888;4.466;2023-04-25T10:30:28;6.72;;;2.22;;
18445;SDS011;9352;50.888;4.466;2023-04-25T10:32:55;5.78;;;2.10;;
18445;SDS011;9352;50.888;4.466;2023-04-25T10:35:24;12.40;;;2.03;;
18445;SDS011;9352;50.888;4.466;2023-04-25T10:37:59;7.22;;;1.92;;
18445;SDS011;9352;50.888;4.466;2023-04-25T10:40:31;4.10;;;1.83;;
18445;SDS011;9352;50.888;4.466;2023-04-25T10:46:00;6.43;;;2.00;;
18445;SDS011;9352;50.888;4.466;2023-04-25T10:48:28;11.80;;;2.20;;
18445;SDS011;9352;50.888;4.466;2023-04-25T10:51:08;6.93;;;2.00;;
18445;SDS011;9352;50.888;4.466;2023-04-25T10:53:36;4.72;;;2.10;;
18445;SDS011;9352;50.888;4.466;2023-04-25T10:56:09;16.90;;;3.00;;
18445;SDS011;9352;50.888;4.466;2023-04-25T10:58:41;14.10;;;3.38;;
18445;SDS011;9352;50.888;4.466;2023-04-25T11:01:11;11.52;;;2.63;;
18445;SDS011;9352;50.888;4.466;2023-04-25T11:03:40;12.95;;;2.55;;
18445;SDS011;9352;50.888;4.466;2023-04-25T11:06:11;11.05;;;2.00;;
18445;SDS011;9352;50.888;4.466;2023-04-25T11:08:50;13.68;;;2.08;;
18445;SDS011;9352;50.888;4.466;2023-04-25T11:11:47;11.02;;;2.30;;
18445;SDS011;9352;50.888;4.466;2023-04-25T11:14:20;6.30;;;1.77;;
18445;SDS011;9352;50.888;4.466;2023-04-25T11:16:48;8.23;;;1.80;;
18445;SDS011;9352;50.888;4.466;2023-04-25T11:19:19;20.23;;;2.42;;
18445;SDS011;9352;50.888;4.466;2023-04-25T11:21:46;15.95;;;2.00;;
18445;SDS011;9352;50.888;4.466;2023-04-25T11:24:13;7.95;;;2.22;;
18445;SDS011;9352;50.888;4.466;2023-04-25T11:26:41;10.98;;;2.05;;
18445;SDS011;9352;50.888;4.466;2023-04-25T11:29:08;9.00;;;2.08;;
18445;SDS011;9352;50.888;4.466;2023-04-25T11:31:35;8.80;;;2.03;;
18445;SDS011;9352;50.888;4.466;2023-04-25T11:34:04;6.57;;;2.05;;
18445;SDS011;9352;50.888;4.466;2023-04-25T11:36:30;6.85;;;1.83;;
18445;SDS011;9352;50.888;4.466;2023-04-25T11:38:57;5.85;;;1.92;;
18445;SDS011;9352;50.888;4.466;2023-04-25T11:41:25;5.97;;;2.10;;
18445;SDS011;9352;50.888;4.466;2023-04-25T11:43:52;12.80;;;2.55;;
18445;SDS011;9352;50.888;4.466;2023-04-25T11:46:19;8.32;;;1.88;;
18445;SDS011;9352;50.888;4.466;2023-04-25T11:48:46;7.22;;;2.08;;
18445;SDS011;9352;50.888;4.466;2023-04-25T11:51:14;6.38;;;1.80;;
18445;SDS011;9352;50.888;4.466;2023-04-25T11:53:41;7.22;;;1.80;;
18445;SDS011;9352;50.888;4.466;2023-04-25T11:56:10;7.18;;;1.88;;
18445;SDS011;9352;50.888;4.466;2023-04-25T11:58:53;6.72;;;2.00;;
18445;SDS011;9352;50.888;4.466;2023-04-25T12:01:25;6.10;;;1.65;;
18445;SDS011;9352;50.888;4.466;2023-04-25T12:03:53;5.63;;;1.60;;
18445;SDS011;9352;50.888;4.466;2023-04-25T12:06:21;5.72;;;1.73;;
18445;SDS011;9352;50.888;4.466;2023-04-25T12:08:58;5.72;;;1.48;;
18445;SDS011;9352;50.888;4.466;2023-04-25T12:11:26;9.45;;;1.70;;
18445;SDS011;9352;50.888;4.466;2023-04-25T12:13:53;5.57;;;1.90;;
18445;SDS011;9352;50.888;4.466;2023-04-25T12:16:20;6.75;;;1.70;;
18445;SDS011;9352;50.888;4.466;2023-04-25T12:18:47;3.78;;;1.40;;
18445;SDS011;9352;50.888;4.466;2023-04-25T12:21:14;3.65;;;1.70;;
18445;SDS011;9352;50.888;4.466;2023-04-25T12:23:42;5.03;;;1.70;;
18445;SDS011;9352;50.888;4.466;2023-04-25T12:26:09;2.03;;;1.40;;
18445;SDS011;9352;50.888;4.466;2023-04-25T12:28:36;2.90;;;1.85;;
18445;SDS011;9352;50.888;4.466;2023-04-25T12:31:03;4.70;;;1.23;;
18445;SDS011;9352;50.888;4.466;2023-04-25T12:33:32;9.38;;;1.90;;
18445;SDS011;9352;50.888;4.466;2023-04-25T12:36:00;5.43;;;1.35;;
18445;SDS011;9352;50.888;4.466;2023-04-25T12:38:35;5.45;;;1.70;;
18445;SDS011;9352;50.888;4.466;2023-04-25T12:41:05;5.60;;;1.33;;
18445;SDS011;9352;50.888;4.466;2023-04-25T12:43:32;3.70;;;1.52;;
18445;SDS011;9352;50.888;4.466;2023-04-25T12:45:59;4.45;;;1.60;;
18445;SDS011;9352;50.888;4.466;2023-04-25T12:48:26;9.40;;;1.80;;
18445;SDS011;9352;50.888;4.466;2023-04-25T12:50:53;3.65;;;1.45;;
18445;SDS011;9352;50.888;4.466;2023-04-25T12:53:21;6.57;;;1.65;;
18445;SDS011;9352;50.888;4.466;2023-04-25T12:55:53;12.02;;;2.10;;
18445;SDS011;9352;50.888;4.466;2023-04-25T12:58:22;8.15;;;2.10;;
18445;SDS011;9352;50.888;4.466;2023-04-25T13:00:49;6.22;;;1.77;;
18445;SDS011;9352;50.888;4.466;2023-04-25T13:03:16;10.00;;;2.35;;
18445;SDS011;9352;50.888;4.466;2023-04-25T13:05:43;6.68;;;2.00;;
18445;SDS011;9352;50.888;4.466;2023-04-25T13:08:10;5.55;;;1.60;;
18445;SDS011;9352;50.888;4.466;2023-04-25T13:10:37;7.82;;;2.38;;
18445;SDS011;9352;50.888;4.466;2023-04-25T13:13:05;7.70;;;2.13;;
18445;SDS011;9352;50.888;4.466;2023-04-25T13:15:33;9.93;;;1.80;;
18445;SDS011;9352;50.888;4.466;2023-04-25T13:18:00;13.13;;;2.38;;
18445;SDS011;9352;50.888;4.466;2023-04-25T13:20:27;4.35;;;1.70;;
18445;SDS011;9352;50.888;4.466;2023-04-25T13:22:54;16.10;;;2.10;;
18445;SDS011;9352;50.888;4.466;2023-04-25T13:25:21;7.72;;;1.63;;
18445;SDS011;9352;50.888;4.466;2023-04-25T13:27:48;15.10;;;5.00;;
18445;SDS011;9352;50.888;4.466;2023-04-25T13:30:15;9.57;;;3.75;;
18445;SDS011;9352;50.888;4.466;2023-04-25T13:32:43;5.38;;;2.33;;
18445;SDS011;9352;50.888;4.466;2023-04-25T13:35:11;17.45;;;5.35;;
18445;SDS011;9352;50.888;4.466;2023-04-25T13:37:39;11.55;;;2.90;;
18445;SDS011;9352;50.888;4.466;2023-04-25T13:40:07;6.72;;;2.00;;
18445;SDS011;9352;50.888;4.466;2023-04-25T13:42:36;4.72;;;1.92;;
18445;SDS011;9352;50.888;4.466;2023-04-25T13:45:03;17.25;;;2.95;;
18445;SDS011;9352;50.888;4.466;2023-04-25T13:47:31;11.13;;;2.33;;
18445;SDS011;9352;50.888;4.466;2023-04-25T13:49:59;22.27;;;7.55;;
18445;SDS011;9352;50.888;4.466;2023-04-25T13:52:28;3.95;;;2.20;;
18445;SDS011;9352;50.888;4.466;2023-04-25T13:54:54;11.00;;;1.95;;
18445;SDS011;9352;50.888;4.466;2023-04-25T13:57:21;14.30;;;3.65;;
18445;SDS011;9352;50.888;4.466;2023-04-25T13:59:48;7.72;;;1.80;;
18445;SDS011;9352;50.888;4.466;2023-04-25T14:02:16;12.60;;;3.67;;
18445;SDS011;9352;50.888;4.466;2023-04-25T14:04:43;5.75;;;3.15;;
18445;SDS011;9352;50.888;4.466;2023-04-25T14:07:11;9.60;;;2.17;;
18445;SDS011;9352;50.888;4.466;2023-04-25T14:09:38;8.60;;;2.20;;
18445;SDS011;9352;50.888;4.466;2023-04-25T14:12:05;7.03;;;1.67;;
18445;SDS011;9352;50.888;4.466;2023-04-25T14:14:32;3.97;;;1.73;;
18445;SDS011;9352;50.888;4.466;2023-04-25T14:16:58;3.80;;;1.50;;
18445;SDS011;9352;50.888;4.466;2023-04-25T14:19:25;3.78;;;1.60;;
18445;SDS011;9352;50.888;4.466;2023-04-25T14:21:53;5.70;;;1.42;;
18445;SDS011;9352;50.888;4.466;2023-04-25T14:24:21;8.77;;;1.75;;
18445;SDS011;9352;50.888;4.466;2023-04-25T14:26:48;5.85;;;1.50;;
18445;SDS011;9352;50.888;4.466;2023-04-25T14:29:15;16.08;;;2.00;;
18445;SDS011;9352;50.888;4.466;2023-04-25T14:31:42;3.55;;;1.60;;
18445;SDS011;9352;50.888;4.466;2023-04-25T14:34:10;6.80;;;2.15;;
18445;SDS011;9352;50.888;4.466;2023-04-25T14:36:36;10.82;;;2.28;;
18445;SDS011;9352;50.888;4.466;2023-04-25T14:39:03;13.75;;;4.82;;
18445;SDS011;9352;50.888;4.466;2023-04-25T14:41:32;7.88;;;1.70;;
18445;SDS011;9352;50.888;4.466;2023-04-25T14:43:59;4.13;;;1.63;;
18445;SDS011;9352;50.888;4.466;2023-04-25T14:46:26;10.80;;;1.80;;
18445;SDS011;9352;50.888;4.466;2023-04-25T14:48:53;7.78;;;1.90;;
18445;SDS011;9352;50.888;4.466;2023-04-25T14:51:21;9.07;;;2.22;;
18445;SDS011;9352;50.888;4.466;2023-04-25T14:53:48;6.53;;;1.50;;
18445;SDS011;9352;50.888;4.466;2023-04-25T14:56:15;17.38;;;2.40;;